Time;durP1;ratioP1;P1;durP2;ratioP2;P2;SDS_P1;SDS_P2;PMS_P1;PMS_P2;Temp;Humidity;BMP_temperature;BMP_pressure;BME280_temperature;BME280_humidity;BME280_pressure;Samples;Min_cycle;Max_cycle;Signal;HPM_P1;HPM_P2
2022/12/20 00:00:48;;;;;;;2.13;1.52;;;;;;;;;;5005105;28;20022;-71
2022/12/20 00:03:14;;;;;;;1.70;1.30;;;;;;;;;;5001499;28;20514;-70
2022/12/20 00:05:41;;;;;;;5.80;2.40;;;;;;;;;;5005735;28;20026;-70
2022/12/20 00:08:08;;;;;;;3.53;1.65;;;;;;;;;;5009884;28;20037;-72
2022/12/20 00:10:38;;;;;;;2.90;1.80;;;;;;;;;;5008777;28;20022;-74
2022/12/20 00:13:04;;;;;;;1.83;1.40;;;;;;;;;;5005298;28;20034;-73
2022/12/20 00:15:30;;;;;;;3.55;1.55;;;;;;;;;;5005245;28;20096;-70
2022/12/20 00:17:57;;;;;;;2.22;1.67;;;;;;;;;;5010053;28;20021;-70
2022/12/20 00:20:24;;;;;;;2.50;1.23;;;;;;;;;;5008105;28;20030;-70
2022/12/20 00:22:50;;;;;;;2.03;1.42;;;;;;;;;;5006979;28;20056;-70
2022/12/20 00:25:16;;;;;;;2.78;1.52;;;;;;;;;;5001724;28;20050;-72
2022/12/20 00:27:42;;;;;;;2.08;1.70;;;;;;;;;;5007894;28;20732;-71
2022/12/20 00:30:08;;;;;;;3.50;1.60;;;;;;;;;;5005806;28;20099;-70
2022/12/20 00:32:35;;;;;;;4.25;1.88;;;;;;;;;;5007530;28;20091;-71
2022/12/20 00:35:01;;;;;;;2.83;1.70;;;;;;;;;;5008861;28;20071;-69
2022/12/20 00:37:27;;;;;;;2.17;1.30;;;;;;;;;;5009096;28;20037;-70
2022/12/20 00:39:53;;;;;;;1.83;1.33;;;;;;;;;;5003634;28;20538;-70
2022/12/20 00:42:19;;;;;;;5.25;1.80;;;;;;;;;;5003578;28;20022;-69
2022/12/20 00:44:45;;;;;;;2.03;1.40;;;;;;;;;;5005578;28;20022;-70
2022/12/20 00:47:11;;;;;;;1.90;1.25;;;;;;;;;;5003141;28;20036;-70
2022/12/20 00:49:38;;;;;;;4.63;1.50;;;;;;;;;;5007577;28;20038;-69
2022/12/20 00:52:04;;;;;;;2.15;1.52;;;;;;;;;;5008732;28;20548;-70
2022/12/20 00:54:30;;;;;;;1.67;1.23;;;;;;;;;;5010646;28;20030;-70
2022/12/20 00:56:56;;;;;;;3.65;1.98;;;;;;;;;;5009172;28;20034;-69
2022/12/20 00:59:22;;;;;;;3.25;1.70;;;;;;;;;;5010464;28;20060;-70
2022/12/20 01:01:49;;;;;;;2.30;1.60;;;;;;;;;;5008942;28;20032;-69
2022/12/20 01:04:15;;;;;;;2.30;1.60;;;;;;;;;;5007864;28;20034;-70
2022/12/20 01:06:41;;;;;;;2.50;1.63;;;;;;;;;;5010680;28;20068;-70
2022/12/20 01:09:07;;;;;;;3.08;1.67;;;;;;;;;;5010392;28;20026;-70
2022/12/20 01:11:35;;;;;;;2.47;1.50;;;;;;;;;;5008849;28;20029;-69
2022/12/20 01:14:03;;;;;;;2.03;1.55;;;;;;;;;;5010513;28;20038;-69
2022/12/20 01:16:35;;;;;;;2.35;1.55;;;;;;;;;;5008908;28;20022;-69
2022/12/20 01:19:01;;;;;;;12.15;2.10;;;;;;;;;;5006126;28;20028;-70
2022/12/20 01:21:27;;;;;;;2.00;1.50;;;;;;;;;;5010432;28;20026;-69
2022/12/20 01:23:54;;;;;;;2.30;1.40;;;;;;;;;;5008210;28;20410;-70
2022/12/20 01:26:21;;;;;;;2.85;1.50;;;;;;;;;;5010237;28;20132;-69
2022/12/20 01:28:48;;;;;;;6.70;1.70;;;;;;;;;;5009481;28;20040;-71
2022/12/20 01:31:16;;;;;;;6.22;1.40;;;;;;;;;;5005821;28;20117;-69
2022/12/20 01:33:42;;;;;;;3.35;1.50;;;;;;;;;;5009653;28;20034;-72
2022/12/20 01:36:11;;;;;;;2.78;1.80;;;;;;;;;;5008647;28;20048;-70
2022/12/20 01:38:37;;;;;;;2.67;1.55;;;;;;;;;;5009511;28;20028;-69
2022/12/20 01:41:04;;;;;;;1.92;1.60;;;;;;;;;;5008177;28;20113;-70
2022/12/20 01:43:47;;;;;;;2.90;1.50;;;;;;;;;;5009916;28;20642;-70
2022/12/20 01:46:13;;;;;;;2.58;1.50;;;;;;;;;;5008160;28;20121;-70
2022/12/20 01:48:40;;;;;;;3.20;1.70;;;;;;;;;;5009593;28;20018;-69
2022/12/20 01:51:06;;;;;;;2.10;1.30;;;;;;;;;;5008592;28;20010;-70
2022/12/20 01:53:32;;;;;;;7.03;1.77;;;;;;;;;;5009229;28;20042;-69
2022/12/20 01:56:02;;;;;;;2.88;1.55;;;;;;;;;;5009280;28;20026;-70
2022/12/20 01:58:29;;;;;;;1.90;1.63;;;;;;;;;;5007860;28;20379;-70
2022/12/20 02:00:55;;;;;;;3.63;1.63;;;;;;;;;;5009368;28;20164;-70
2022/12/20 02:03:22;;;;;;;2.90;1.38;;;;;;;;;;5009802;28;20026;-69
2022/12/20 02:05:48;;;;;;;4.53;1.65;;;;;;;;;;4997819;28;20918;-70
2022/12/20 02:08:16;;;;;;;2.15;1.65;;;;;;;;;;5007035;28;20037;-70
2022/12/20 02:10:42;;;;;;;2.67;1.42;;;;;;;;;;5006698;28;20475;-69
2022/12/20 02:13:12;;;;;;;2.00;1.45;;;;;;;;;;5009804;28;20124;-70
2022/12/20 02:15:41;;;;;;;3.60;1.67;;;;;;;;;;5007692;28;20021;-70
2022/12/20 02:18:14;;;;;;;2.42;1.67;;;;;;;;;;5008269;28;20075;-70
2022/12/20 02:20:40;;;;;;;4.65;1.65;;;;;;;;;;5004834;28;20117;-69
2022/12/20 02:23:25;;;;;;;3.95;1.88;;;;;;;;;;5007633;28;20527;-70
2022/12/20 02:26:06;;;;;;;3.55;1.60;;;;;;;;;;4999329;28;20058;-69
2022/12/20 02:28:55;;;;;;;3.13;1.37;;;;;;;;;;5008494;28;20037;-69
2022/12/20 02:31:25;;;;;;;4.80;1.63;;;;;;;;;;5008937;28;20040;-69
2022/12/20 02:33:52;;;;;;;4.55;1.40;;;;;;;;;;5007652;28;20498;-71
2022/12/20 02:36:18;;;;;;;2.30;1.40;;;;;;;;;;5009323;28;20037;-70
2022/12/20 02:38:45;;;;;;;2.20;1.50;;;;;;;;;;5008574;28;20038;-70
2022/12/20 02:41:11;;;;;;;2.53;1.40;;;;;;;;;;5004549;28;20037;-70
2022/12/20 02:46:26;;;;;;;3.03;1.60;;;;;;;;;;5007744;28;20528;-70
2022/12/20 02:48:53;;;;;;;3.50;1.70;;;;;;;;;;5011183;28;20047;-69
2022/12/20 02:51:21;;;;;;;3.38;1.52;;;;;;;;;;5011310;28;20034;-69
2022/12/20 02:53:47;;;;;;;3.10;1.83;;;;;;;;;;5006509;28;20769;-70
2022/12/20 02:56:17;;;;;;;2.63;1.55;;;;;;;;;;5005906;28;20026;-70
2022/12/20 02:58:46;;;;;;;3.65;1.63;;;;;;;;;;5000554;28;20026;-69
2022/12/20 03:01:33;;;;;;;2.63;1.55;;;;;;;;;;5012342;28;20038;-69
2022/12/20 03:04:00;;;;;;;3.28;1.80;;;;;;;;;;5011678;28;20026;-70
2022/12/20 03:06:26;;;;;;;2.78;1.80;;;;;;;;;;5009138;28;20018;-69
2022/12/20 03:08:52;;;;;;;4.47;1.90;;;;;;;;;;5012210;28;20041;-69
2022/12/20 03:11:19;;;;;;;4.03;1.60;;;;;;;;;;5011802;28;20624;-70
2022/12/20 03:13:45;;;;;;;3.35;1.85;;;;;;;;;;5011347;28;20491;-69
2022/12/20 03:16:11;;;;;;;1.95;1.52;;;;;;;;;;5011484;28;20083;-69
2022/12/20 03:18:38;;;;;;;2.50;1.80;;;;;;;;;;5007864;28;20026;-70
2022/12/20 03:21:04;;;;;;;2.35;1.88;;;;;;;;;;5013192;28;20125;-69
2022/12/20 03:23:30;;;;;;;2.58;1.60;;;;;;;;;;5010176;28;20029;-70
2022/12/20 03:25:56;;;;;;;3.40;1.80;;;;;;;;;;5012787;28;20493;-70
2022/12/20 03:28:22;;;;;;;4.80;2.13;;;;;;;;;;5008345;28;20390;-70
2022/12/20 03:30:48;;;;;;;3.50;1.77;;;;;;;;;;5006714;28;20075;-70
2022/12/20 03:33:15;;;;;;;2.13;1.67;;;;;;;;;;5009386;28;20040;-70
2022/12/20 03:35:41;;;;;;;2.50;1.70;;;;;;;;;;5010165;28;20013;-69
2022/12/20 03:38:08;;;;;;;2.08;1.55;;;;;;;;;;5012483;28;20711;-69
2022/12/20 03:40:34;;;;;;;3.53;1.40;;;;;;;;;;5011215;28;20120;-69
2022/12/20 03:43:00;;;;;;;2.13;1.60;;;;;;;;;;5013083;28;20024;-69
2022/12/20 03:45:26;;;;;;;3.55;2.17;;;;;;;;;;5012353;28;20030;-69
2022/12/20 03:47:52;;;;;;;4.30;2.10;;;;;;;;;;5010599;28;20052;-69
2022/12/20 03:50:18;;;;;;;2.30;1.80;;;;;;;;;;5010012;28;20021;-69
2022/12/20 03:52:44;;;;;;;3.15;1.60;;;;;;;;;;5010755;28;20475;-70
2022/12/20 03:55:11;;;;;;;4.00;1.92;;;;;;;;;;5012648;28;20022;-70
2022/12/20 03:57:37;;;;;;;4.95;2.00;;;;;;;;;;5009996;28;20029;-70
2022/12/20 04:00:05;;;;;;;5.40;2.20;;;;;;;;;;5011713;28;20026;-71
2022/12/20 04:02:31;;;;;;;2.80;1.85;;;;;;;;;;5009866;28;20103;-69
2022/12/20 04:04:57;;;;;;;3.63;2.10;;;;;;;;;;5012384;28;20018;-69
2022/12/20 04:07:23;;;;;;;2.80;1.70;;;;;;;;;;5009118;28;20037;-70
2022/12/20 04:09:50;;;;;;;4.28;2.13;;;;;;;;;;5012279;28;20045;-70
2022/12/20 04:12:16;;;;;;;2.38;1.70;;;;;;;;;;5008056;28;20052;-69
2022/12/20 04:14:42;;;;;;;2.72;1.70;;;;;;;;;;5007449;28;20026;-70
2022/12/20 04:17:08;;;;;;;2.25;1.70;;;;;;;;;;5003610;28;20392;-70
2022/12/20 04:19:34;;;;;;;3.42;1.70;;;;;;;;;;4997364;28;20030;-70
2022/12/20 04:22:00;;;;;;;4.68;1.88;;;;;;;;;;4996912;28;20025;-70
2022/12/20 04:24:26;;;;;;;3.45;1.80;;;;;;;;;;5004787;28;20083;-70
2022/12/20 04:26:53;;;;;;;2.35;1.33;;;;;;;;;;5004899;28;20100;-70
2022/12/20 04:29:19;;;;;;;2.83;1.65;;;;;;;;;;5000862;28;20649;-70
2022/12/20 04:31:45;;;;;;;4.25;1.60;;;;;;;;;;5005921;28;20718;-70
2022/12/20 04:34:11;;;;;;;2.50;1.63;;;;;;;;;;5000953;28;20191;-69
2022/12/20 04:36:38;;;;;;;3.90;1.83;;;;;;;;;;5004351;28;20613;-70
2022/12/20 04:39:04;;;;;;;1.80;1.48;;;;;;;;;;5001411;28;20037;-69
2022/12/20 04:41:30;;;;;;;2.50;1.60;;;;;;;;;;5001267;28;20095;-69
2022/12/20 04:43:57;;;;;;;4.05;1.42;;;;;;;;;;5002565;28;20037;-70
2022/12/20 04:46:24;;;;;;;2.08;1.48;;;;;;;;;;5001902;28;20374;-69
2022/12/20 04:48:51;;;;;;;2.10;1.45;;;;;;;;;;5001349;28;20276;-69
2022/12/20 04:51:17;;;;;;;2.58;1.77;;;;;;;;;;5002129;28;20034;-69
2022/12/20 04:53:46;;;;;;;2.97;1.80;;;;;;;;;;4999792;28;20038;-72
2022/12/20 04:56:17;;;;;;;4.80;1.90;;;;;;;;;;5003113;28;20072;-70
2022/12/20 04:58:43;;;;;;;3.30;2.42;;;;;;;;;;5001589;28;20565;-70
2022/12/20 05:01:09;;;;;;;3.55;1.85;;;;;;;;;;5001991;28;20018;-70
2022/12/20 05:03:36;;;;;;;3.00;1.83;;;;;;;;;;5002108;28;20101;-70
2022/12/20 05:06:02;;;;;;;1.92;1.60;;;;;;;;;;5001475;28;20041;-69
2022/12/20 05:08:29;;;;;;;3.22;1.60;;;;;;;;;;4999300;28;20034;-69
2022/12/20 05:10:55;;;;;;;4.97;2.60;;;;;;;;;;5000853;28;20020;-69
2022/12/20 05:13:21;;;;;;;2.50;1.60;;;;;;;;;;5000090;28;20042;-69
2022/12/20 05:15:51;;;;;;;4.15;1.73;;;;;;;;;;5000915;28;20088;-70
2022/12/20 05:18:17;;;;;;;3.97;2.00;;;;;;;;;;5001430;28;20430;-71
2022/12/20 05:20:44;;;;;;;3.13;1.90;;;;;;;;;;5002050;28;20100;-69
2022/12/20 05:26:18;;;;;;;5.80;1.90;;;;;;;;;;4936171;29;20054;-69
2022/12/20 05:28:44;;;;;;;4.57;1.55;;;;;;;;;;4990076;28;20037;-72
2022/12/20 05:31:10;;;;;;;3.35;1.50;;;;;;;;;;5002867;28;20018;-69
2022/12/20 05:33:36;;;;;;;2.90;1.48;;;;;;;;;;4999412;28;20045;-69
2022/12/20 05:36:03;;;;;;;2.28;1.50;;;;;;;;;;5000938;28;20026;-69
2022/12/20 05:38:29;;;;;;;3.50;1.60;;;;;;;;;;5000627;28;20530;-69
2022/12/20 05:40:55;;;;;;;4.78;1.40;;;;;;;;;;5002568;28;20030;-69
2022/12/20 05:43:22;;;;;;;3.35;1.50;;;;;;;;;;5001402;28;20108;-69
2022/12/20 05:45:52;;;;;;;1.70;1.33;;;;;;;;;;5002583;28;20032;-71
2022/12/20 05:48:19;;;;;;;2.65;1.63;;;;;;;;;;4999808;28;20037;-69
2022/12/20 05:50:46;;;;;;;3.08;1.73;;;;;;;;;;5001546;28;20025;-69
2022/12/20 05:53:13;;;;;;;2.70;1.30;;;;;;;;;;4995746;28;20092;-69
2022/12/20 05:55:50;;;;;;;3.47;1.60;;;;;;;;;;4999340;28;20021;-70
2022/12/20 05:58:16;;;;;;;2.25;1.30;;;;;;;;;;4996975;28;20030;-70
2022/12/20 06:00:43;;;;;;;3.78;1.70;;;;;;;;;;4996725;28;20125;-70
2022/12/20 06:03:12;;;;;;;2.83;1.38;;;;;;;;;;5001216;28;20108;-69
2022/12/20 06:05:39;;;;;;;2.38;1.55;;;;;;;;;;5002017;28;20137;-70
2022/12/20 06:08:06;;;;;;;2.63;1.50;;;;;;;;;;5000395;28;20025;-70
2022/12/20 06:10:36;;;;;;;1.67;1.23;;;;;;;;;;5001575;28;20055;-71
2022/12/20 06:13:03;;;;;;;3.22;1.60;;;;;;;;;;4999498;28;20026;-69
2022/12/20 06:15:29;;;;;;;3.95;1.40;;;;;;;;;;5000832;28;20026;-70
2022/12/20 06:17:56;;;;;;;2.72;1.33;;;;;;;;;;5000615;28;20030;-71
2022/12/20 06:20:22;;;;;;;1.73;1.30;;;;;;;;;;4999654;28;20320;-69
2022/12/20 06:22:48;;;;;;;2.00;1.30;;;;;;;;;;4999744;28;20021;-70
2022/12/20 06:25:14;;;;;;;1.85;1.40;;;;;;;;;;5001476;28;20030;-69
2022/12/20 06:27:41;;;;;;;1.80;1.23;;;;;;;;;;4995002;28;20032;-70
2022/12/20 06:30:08;;;;;;;3.90;1.65;;;;;;;;;;5002006;28;20738;-69
2022/12/20 06:32:34;;;;;;;1.42;1.13;;;;;;;;;;4994433;28;20132;-69
2022/12/20 06:35:00;;;;;;;3.25;1.38;;;;;;;;;;4998822;28;20121;-70
2022/12/20 06:37:26;;;;;;;1.95;1.30;;;;;;;;;;5000613;28;20028;-69
2022/12/20 06:39:53;;;;;;;2.83;1.27;;;;;;;;;;4999943;28;20079;-70
2022/12/20 06:42:19;;;;;;;2.17;1.25;;;;;;;;;;5000183;28;20030;-69
2022/12/20 06:44:45;;;;;;;4.45;1.60;;;;;;;;;;5000202;28;20037;-69
2022/12/20 06:47:11;;;;;;;4.43;2.10;;;;;;;;;;4998967;28;20061;-70
2022/12/20 06:49:38;;;;;;;2.60;1.30;;;;;;;;;;5000581;28;20067;-69
2022/12/20 06:52:04;;;;;;;2.42;1.77;;;;;;;;;;5001452;28;20026;-69
2022/12/20 06:54:30;;;;;;;4.38;1.55;;;;;;;;;;5000962;28;20034;-69
2022/12/20 06:56:56;;;;;;;4.00;2.38;;;;;;;;;;4998504;28;20022;-69
2022/12/20 06:59:23;;;;;;;4.90;2.28;;;;;;;;;;5001060;28;20030;-70
2022/12/20 07:01:49;;;;;;;3.95;2.70;;;;;;;;;;5001053;28;20113;-69
2022/12/20 07:04:15;;;;;;;11.15;3.47;;;;;;;;;;5001307;28;20026;-69
2022/12/20 07:06:41;;;;;;;16.38;7.05;;;;;;;;;;4999804;28;20068;-70
2022/12/20 07:09:08;;;;;;;9.48;4.57;;;;;;;;;;5000128;28;20040;-70
2022/12/20 07:11:34;;;;;;;6.40;3.58;;;;;;;;;;5000629;28;20100;-69
2022/12/20 07:14:00;;;;;;;9.15;3.00;;;;;;;;;;5000737;28;20124;-69
2022/12/20 07:16:27;;;;;;;10.57;3.72;;;;;;;;;;5000394;28;20075;-70
2022/12/20 07:18:54;;;;;;;17.02;9.35;;;;;;;;;;4989835;28;20053;-69
2022/12/20 07:21:20;;;;;;;6.50;3.40;;;;;;;;;;5000635;28;20060;-69
2022/12/20 07:23:47;;;;;;;6.05;3.28;;;;;;;;;;5000097;28;20041;-70
2022/12/20 07:26:14;;;;;;;4.38;3.30;;;;;;;;;;5001457;28;20042;-70
2022/12/20 07:28:40;;;;;;;14.80;8.13;;;;;;;;;;4994418;28;20494;-70
2022/12/20 07:31:06;;;;;;;22.92;11.80;;;;;;;;;;5001327;28;20030;-69
2022/12/20 07:33:33;;;;;;;14.88;8.57;;;;;;;;;;5000777;28;20042;-69
2022/12/20 07:36:00;;;;;;;14.15;8.38;;;;;;;;;;5003944;28;20054;-70
2022/12/20 07:38:26;;;;;;;7.55;5.38;;;;;;;;;;5003178;28;20498;-69
2022/12/20 07:40:52;;;;;;;9.40;5.60;;;;;;;;;;5003294;28;20017;-70
2022/12/20 07:43:18;;;;;;;7.90;4.72;;;;;;;;;;4994831;28;20040;-69
2022/12/20 07:45:44;;;;;;;7.03;4.22;;;;;;;;;;5003566;28;20595;-70
2022/12/20 07:48:10;;;;;;;6.85;4.10;;;;;;;;;;4994566;28;20037;-69
2022/12/20 07:50:37;;;;;;;6.30;4.30;;;;;;;;;;5003249;28;20026;-71
2022/12/20 07:53:05;;;;;;;6.75;4.50;;;;;;;;;;5001739;28;20126;-70
2022/12/20 07:55:32;;;;;;;8.00;4.78;;;;;;;;;;4998914;28;20018;-69
2022/12/20 07:58:01;;;;;;;7.88;5.05;;;;;;;;;;5003497;28;20022;-69
2022/12/20 08:00:28;;;;;;;6.60;4.70;;;;;;;;;;5002799;28;20026;-69
2022/12/20 08:02:57;;;;;;;8.27;4.60;;;;;;;;;;5002064;28;20089;-69
2022/12/20 08:05:23;;;;;;;7.88;4.38;;;;;;;;;;4997134;28;20030;-70
2022/12/20 08:07:49;;;;;;;10.90;5.88;;;;;;;;;;5002933;28;20048;-69
2022/12/20 08:10:18;;;;;;;10.75;5.72;;;;;;;;;;5003266;28;20033;-70
2022/12/20 08:12:46;;;;;;;11.25;6.57;;;;;;;;;;5001241;28;20593;-70
2022/12/20 08:15:12;;;;;;;9.23;5.80;;;;;;;;;;5001694;28;20050;-70
2022/12/20 08:17:38;;;;;;;12.30;5.68;;;;;;;;;;5003108;28;20053;-69
2022/12/20 08:20:05;;;;;;;13.80;6.85;;;;;;;;;;5001813;28;20022;-69
2022/12/20 08:22:31;;;;;;;11.65;6.82;;;;;;;;;;5001040;28;20838;-70
2022/12/20 08:24:58;;;;;;;11.25;7.65;;;;;;;;;;5002746;28;20470;-70
2022/12/20 08:27:24;;;;;;;10.85;7.65;;;;;;;;;;5001478;28;20640;-70
2022/12/20 08:29:50;;;;;;;15.35;9.00;;;;;;;;;;5003274;28;20030;-69
2022/12/20 08:32:16;;;;;;;13.15;9.25;;;;;;;;;;5001924;28;20037;-69
2022/12/20 08:34:42;;;;;;;16.13;9.82;;;;;;;;;;5001936;28;20091;-70
2022/12/20 08:37:08;;;;;;;17.52;10.27;;;;;;;;;;5002666;28;20022;-70
2022/12/20 08:39:35;;;;;;;18.67;12.30;;;;;;;;;;5002530;28;20025;-69
2022/12/20 08:42:01;;;;;;;22.85;13.40;;;;;;;;;;5002119;28;20074;-75
2022/12/20 08:44:27;;;;;;;21.25;12.90;;;;;;;;;;5002053;28;20022;-70
2022/12/20 08:46:53;;;;;;;20.73;13.25;;;;;;;;;;4989355;28;20054;-70
2022/12/20 08:49:19;;;;;;;22.48;14.10;;;;;;;;;;5002227;28;20029;-71
2022/12/20 08:51:45;;;;;;;20.67;14.85;;;;;;;;;;5003637;28;20478;-70
2022/12/20 08:54:12;;;;;;;17.05;12.82;;;;;;;;;;5002890;28;20473;-70
2022/12/20 08:56:38;;;;;;;19.30;12.38;;;;;;;;;;5003246;28;20033;-70
2022/12/20 08:59:04;;;;;;;18.83;12.88;;;;;;;;;;5000868;28;20036;-70
2022/12/20 09:01:32;;;;;;;18.58;12.32;;;;;;;;;;5003310;28;20025;-70
2022/12/20 09:03:58;;;;;;;18.30;11.50;;;;;;;;;;5002080;28;20156;-71
2022/12/20 09:06:25;;;;;;;9.80;6.28;;;;;;;;;;5002842;28;20097;-70
2022/12/20 09:08:51;;;;;;;3.63;2.70;;;;;;;;;;5003041;28;20096;-70
2022/12/20 09:11:22;;;;;;;3.92;2.53;;;;;;;;;;5000087;28;20026;-70
2022/12/20 09:13:49;;;;;;;3.35;2.00;;;;;;;;;;5002704;28;20117;-70
2022/12/20 09:16:17;;;;;;;3.25;2.30;;;;;;;;;;5002405;28;20741;-69
2022/12/20 09:18:43;;;;;;;5.03;1.77;;;;;;;;;;5001971;28;20034;-69
2022/12/20 09:21:11;;;;;;;2.80;1.70;;;;;;;;;;4999493;28;20022;-69
2022/12/20 09:23:37;;;;;;;4.03;1.50;;;;;;;;;;5001367;28;20033;-70
2022/12/20 09:26:05;;;;;;;4.10;2.13;;;;;;;;;;4991207;28;20038;-70
2022/12/20 09:28:31;;;;;;;4.85;1.60;;;;;;;;;;4998970;28;20032;-70
2022/12/20 09:31:01;;;;;;;2.30;1.80;;;;;;;;;;4998944;28;20049;-70
2022/12/20 09:33:29;;;;;;;3.47;1.80;;;;;;;;;;5000702;28;20044;-71
2022/12/20 09:35:56;;;;;;;5.10;2.20;;;;;;;;;;4995749;28;20030;-71
2022/12/20 09:38:22;;;;;;;2.20;1.38;;;;;;;;;;4998201;28;20022;-70
2022/12/20 09:40:50;;;;;;;4.13;1.70;;;;;;;;;;5000430;28;20028;-70
2022/12/20 09:43:17;;;;;;;4.28;2.50;;;;;;;;;;5002000;28;20036;-70
2022/12/20 09:45:44;;;;;;;5.40;2.45;;;;;;;;;;4999571;28;20013;-71
2022/12/20 09:48:16;;;;;;;3.35;2.20;;;;;;;;;;4998068;28;20060;-71
2022/12/20 09:50:43;;;;;;;6.22;2.80;;;;;;;;;;5001493;28;20360;-70
2022/12/20 09:53:19;;;;;;;4.30;2.90;;;;;;;;;;5000879;28;20060;-71
2022/12/20 09:55:58;;;;;;;3.38;1.92;;;;;;;;;;4995333;28;20536;-71
2022/12/20 09:58:34;;;;;;;5.47;2.75;;;;;;;;;;4997256;28;20051;-71
2022/12/20 10:01:07;;;;;;;3.72;2.30;;;;;;;;;;5000985;28;20118;-71
2022/12/20 10:03:35;;;;;;;5.78;2.33;;;;;;;;;;5001707;28;20026;-71
2022/12/20 10:06:04;;;;;;;3.85;1.80;;;;;;;;;;5000973;28;20375;-71
2022/12/20 10:08:40;;;;;;;4.20;2.40;;;;;;;;;;4999351;28;20113;-71
2022/12/20 10:11:36;;;;;;;3.13;2.67;;;;;;;;;;5000362;28;20109;-70
2022/12/20 10:14:08;;;;;;;6.32;2.15;;;;;;;;;;4987312;28;20049;-71
2022/12/20 10:16:41;;;;;;;3.70;1.90;;;;;;;;;;5001681;28;20018;-71
2022/12/20 10:19:16;;;;;;;4.25;1.92;;;;;;;;;;5000961;28;20025;-71
2022/12/20 10:21:42;;;;;;;3.97;2.22;;;;;;;;;;4996826;28;20026;-74
2022/12/20 10:24:17;;;;;;;4.20;2.08;;;;;;;;;;4994372;28;20716;-73
2022/12/20 10:26:44;;;;;;;3.00;2.20;;;;;;;;;;4997587;28;20129;-71
2022/12/20 10:29:10;;;;;;;3.65;2.20;;;;;;;;;;5001383;28;20061;-71
2022/12/20 10:31:38;;;;;;;4.38;1.83;;;;;;;;;;4994989;28;20057;-70
2022/12/20 10:34:04;;;;;;;3.10;1.90;;;;;;;;;;4999835;28;20033;-71
2022/12/20 10:36:32;;;;;;;2.50;1.60;;;;;;;;;;5000817;28;20057;-71
2022/12/20 10:39:02;;;;;;;1.85;1.20;;;;;;;;;;5000759;28;20053;-71
2022/12/20 10:41:50;;;;;;;6.82;2.22;;;;;;;;;;5000399;28;20076;-70
2022/12/20 10:44:25;;;;;;;3.15;1.63;;;;;;;;;;4993689;28;20034;-70
2022/12/20 10:46:53;;;;;;;5.32;2.08;;;;;;;;;;4993391;28;20041;-70
2022/12/20 10:49:22;;;;;;;2.08;1.50;;;;;;;;;;4999386;28;20034;-70
2022/12/20 10:51:52;;;;;;;1.70;1.40;;;;;;;;;;5001351;28;20098;-71
2022/12/20 10:54:28;;;;;;;4.57;2.28;;;;;;;;;;5001104;28;20038;-70
2022/12/20 10:56:57;;;;;;;5.55;2.22;;;;;;;;;;5001248;28;20157;-70
2022/12/20 10:59:30;;;;;;;3.03;1.80;;;;;;;;;;5000317;28;20028;-70
2022/12/20 11:01:56;;;;;;;3.65;1.88;;;;;;;;;;4999743;28;20122;-70
2022/12/20 11:04:33;;;;;;;6.38;1.90;;;;;;;;;;4999665;28;20030;-71
2022/12/20 11:07:01;;;;;;;3.35;2.03;;;;;;;;;;5001705;28;20117;-70
2022/12/20 11:09:37;;;;;;;3.42;1.48;;;;;;;;;;5001501;28;20030;-70
2022/12/20 11:12:11;;;;;;;3.72;1.70;;;;;;;;;;5005468;28;20806;-71
2022/12/20 11:14:38;;;;;;;2.83;1.58;;;;;;;;;;5004914;28;20060;-70
2022/12/20 11:17:24;;;;;;;4.72;1.88;;;;;;;;;;5003965;28;20026;-70
2022/12/20 11:19:56;;;;;;;2.95;1.40;;;;;;;;;;5000613;28;20052;-70
2022/12/20 11:22:31;;;;;;;2.60;1.50;;;;;;;;;;5004817;28;20022;-70
2022/12/20 11:25:00;;;;;;;2.63;1.58;;;;;;;;;;5004349;28;20044;-70
2022/12/20 11:27:45;;;;;;;2.85;1.50;;;;;;;;;;5004732;28;20037;-70
2022/12/20 11:30:26;;;;;;;2.53;1.60;;;;;;;;;;5004004;28;20018;-70
2022/12/20 11:33:07;;;;;;;2.13;1.30;;;;;;;;;;5004497;28;20501;-70
2022/12/20 11:35:39;;;;;;;2.33;1.40;;;;;;;;;;5002855;28;20026;-70
2022/12/20 11:38:05;;;;;;;2.22;1.35;;;;;;;;;;5003837;28;20348;-70
2022/12/20 11:40:33;;;;;;;3.45;1.83;;;;;;;;;;5004465;28;20024;-71
2022/12/20 11:43:18;;;;;;;4.10;1.40;;;;;;;;;;5003212;28;20856;-71
2022/12/20 11:45:54;;;;;;;2.17;1.45;;;;;;;;;;5004192;28;20109;-70
2022/12/20 11:48:29;;;;;;;2.20;1.40;;;;;;;;;;5002409;28;20025;-70
2022/12/20 11:50:59;;;;;;;1.60;1.25;;;;;;;;;;4994898;28;20029;-71
2022/12/20 11:53:25;;;;;;;4.40;1.50;;;;;;;;;;5003983;28;20075;-70
2022/12/20 11:55:53;;;;;;;2.22;1.40;;;;;;;;;;4998880;28;20814;-70
2022/12/20 11:58:25;;;;;;;2.65;1.70;;;;;;;;;;5002769;28;20033;-71
2022/12/20 12:01:12;;;;;;;2.65;1.73;;;;;;;;;;5002653;28;20026;-70
2022/12/20 12:03:40;;;;;;;2.35;1.73;;;;;;;;;;5000386;28;20072;-70
2022/12/20 12:06:18;;;;;;;2.92;1.73;;;;;;;;;;5004021;28;20148;-70
2022/12/20 12:08:48;;;;;;;2.08;1.27;;;;;;;;;;5001508;28;20033;-72
2022/12/20 12:11:20;;;;;;;3.88;1.42;;;;;;;;;;4998424;28;20030;-70
2022/12/20 12:13:46;;;;;;;4.18;1.83;;;;;;;;;;4998608;28;20164;-70
2022/12/20 12:16:16;;;;;;;2.58;1.88;;;;;;;;;;4999414;28;20022;-70
2022/12/20 12:18:42;;;;;;;1.50;1.40;;;;;;;;;;5002538;28;20022;-70
2022/12/20 12:21:25;;;;;;;1.58;1.20;;;;;;;;;;5002305;28;20026;-70
2022/12/20 12:24:05;;;;;;;2.03;1.20;;;;;;;;;;4998969;28;20039;-70
2022/12/20 12:26:33;;;;;;;4.22;1.52;;;;;;;;;;5000324;28;20100;-71
2022/12/20 12:29:01;;;;;;;2.05;1.52;;;;;;;;;;5001688;28;20046;-71
2022/12/20 12:31:40;;;;;;;2.83;1.73;;;;;;;;;;5002604;28;20525;-71
2022/12/20 12:34:30;;;;;;;4.00;1.73;;;;;;;;;;5002716;28;20391;-71
2022/12/20 12:37:15;;;;;;;2.58;1.58;;;;;;;;;;5007314;28;20018;-72
2022/12/20 12:39:44;;;;;;;2.97;2.03;;;;;;;;;;5003139;28;20037;-72
2022/12/20 12:42:21;;;;;;;3.78;1.85;;;;;;;;;;5005724;28;20502;-72
2022/12/20 12:44:50;;;;;;;2.85;1.77;;;;;;;;;;5004764;28;20065;-71
2022/12/20 12:47:40;;;;;;;3.60;1.80;;;;;;;;;;5005899;28;20485;-72
2022/12/20 12:50:15;;;;;;;3.25;1.55;;;;;;;;;;4997912;28;20869;-72
2022/12/20 12:52:52;;;;;;;2.97;1.80;;;;;;;;;;5005290;28;20026;-72
2022/12/20 12:55:37;;;;;;;4.95;2.03;;;;;;;;;;5006104;28;20046;-72
2022/12/20 12:58:15;;;;;;;6.13;2.10;;;;;;;;;;5004365;28;20522;-72
2022/12/20 13:00:55;;;;;;;3.15;2.03;;;;;;;;;;5004073;28;20592;-74
2022/12/20 13:03:36;;;;;;;11.45;2.58;;;;;;;;;;4999469;28;20668;-72
2022/12/20 13:06:21;;;;;;;8.20;2.35;;;;;;;;;;5000213;28;20029;-73
2022/12/20 13:08:49;;;;;;;4.93;2.00;;;;;;;;;;5003995;28;20040;-76
2022/12/20 13:11:28;;;;;;;5.45;2.05;;;;;;;;;;5004355;28;20026;-74
2022/12/20 13:14:26;;;;;;;3.97;1.60;;;;;;;;;;5005904;28;20589;-73
2022/12/20 13:17:12;;;;;;;3.60;1.60;;;;;;;;;;4962720;28;20030;-73
2022/12/20 13:19:39;;;;;;;2.78;1.80;;;;;;;;;;5004835;28;20032;-73
2022/12/20 13:22:05;;;;;;;1.90;1.45;;;;;;;;;;5003729;28;20026;-73
2022/12/20 13:24:39;;;;;;;3.72;1.90;;;;;;;;;;5005748;28;20026;-73
2022/12/20 13:27:16;;;;;;;2.05;1.63;;;;;;;;;;5005141;28;20072;-73
2022/12/20 13:29:53;;;;;;;3.35;1.40;;;;;;;;;;5003841;28;20493;-75
2022/12/20 13:32:38;;;;;;;4.03;1.92;;;;;;;;;;4996201;28;20033;-73
2022/12/20 13:35:24;;;;;;;2.20;1.70;;;;;;;;;;5005176;28;20095;-72
2022/12/20 13:37:51;;;;;;;5.78;1.75;;;;;;;;;;5003620;28;20549;-73
2022/12/20 13:40:32;;;;;;;4.43;1.70;;;;;;;;;;5004426;28;20282;-72
2022/12/20 13:42:59;;;;;;;2.97;1.77;;;;;;;;;;5001367;28;20069;-73
2022/12/20 13:45:26;;;;;;;3.03;1.50;;;;;;;;;;5003994;28;20072;-73
2022/12/20 13:47:54;;;;;;;3.75;1.60;;;;;;;;;;5003533;28;20021;-73
2022/12/20 13:50:23;;;;;;;2.00;1.40;;;;;;;;;;5001551;28;20121;-76
2022/12/20 13:52:50;;;;;;;2.22;1.50;;;;;;;;;;5000875;28;20029;-73
2022/12/20 13:55:22;;;;;;;3.15;1.60;;;;;;;;;;5003539;28;20033;-73
2022/12/20 13:57:49;;;;;;;3.33;1.70;;;;;;;;;;4999776;28;20030;-73
2022/12/20 14:00:17;;;;;;;3.05;1.77;;;;;;;;;;5000553;28;20045;-73
2022/12/20 14:02:43;;;;;;;3.05;1.63;;;;;;;;;;5002807;28;20026;-73
2022/12/20 14:05:17;;;;;;;3.08;1.58;;;;;;;;;;5003188;28;20032;-73
2022/12/20 14:07:45;;;;;;;2.72;1.70;;;;;;;;;;5003442;28;20412;-72
2022/12/20 14:10:20;;;;;;;5.63;2.33;;;;;;;;;;4995463;28;20018;-72
2022/12/20 14:12:46;;;;;;;2.85;2.05;;;;;;;;;;5002925;28;20084;-73
2022/12/20 14:15:22;;;;;;;9.80;2.60;;;;;;;;;;4994371;28;20483;-73
2022/12/20 14:17:49;;;;;;;2.33;1.55;;;;;;;;;;5002693;28;20052;-80
2022/12/20 14:20:16;;;;;;;4.05;1.58;;;;;;;;;;5003224;28;20114;-74
2022/12/20 14:22:53;;;;;;;2.05;1.38;;;;;;;;;;5003816;28;20056;-72
2022/12/20 14:25:27;;;;;;;2.30;1.70;;;;;;;;;;5002109;28;20547;-73
2022/12/20 14:27:54;;;;;;;4.43;1.50;;;;;;;;;;5004431;28;20030;-73
2022/12/20 14:30:26;;;;;;;3.38;1.60;;;;;;;;;;5004285;28;20080;-72
2022/12/20 14:32:52;;;;;;;;;;;;;;;;;;5004626;28;20076;-73
2022/12/20 14:35:19;;;;;;;2.42;1.60;;;;;;;;;;5003098;28;19949;-72
2022/12/20 14:37:52;;;;;;;3.05;1.40;;;;;;;;;;5003986;28;20231;-73
2022/12/20 14:40:19;;;;;;;1.60;1.30;;;;;;;;;;5003557;28;20026;-72
2022/12/20 14:42:46;;;;;;;2.35;1.50;;;;;;;;;;5002503;28;20557;-73
2022/12/20 14:45:20;;;;;;;5.00;1.65;;;;;;;;;;5008095;28;20014;-73
2022/12/20 14:47:48;;;;;;;2.85;1.50;;;;;;;;;;5008726;28;20021;-74
2022/12/20 14:50:24;;;;;;;2.45;1.48;;;;;;;;;;5007867;28;20034;-73
2022/12/20 14:52:50;;;;;;;2.05;1.60;;;;;;;;;;5007820;28;20022;-72
2022/12/20 14:55:37;;;;;;;2.40;1.40;;;;;;;;;;5006098;28;20532;-73
2022/12/20 14:58:21;;;;;;;4.00;1.40;;;;;;;;;;5006464;28;20128;-72